createdAt,value
2018-12-31T00:00:59.987Z,102416.53
2018-12-31T00:03:28.644Z,102413.98
2018-12-31T00:05:57.113Z,102402.54
2018-12-31T00:08:25.732Z,102396.77
2018-12-31T00:10:54.311Z,102385.90
2018-12-31T00:13:22.787Z,102389.40
2018-12-31T00:15:51.248Z,102390.67
2018-12-31T00:18:19.823Z,102395.32
2018-12-31T00:20:48.332Z,102402.16
2018-12-31T00:23:17.214Z,102415.17
2018-12-31T00:25:45.635Z,102424.34
2018-12-31T00:28:14.486Z,102423.30
2018-12-31T00:30:43.379Z,102418.20
2018-12-31T00:33:11.801Z,102428.80
2018-12-31T00:35:40.497Z,102422.55
2018-12-31T00:38:08.935Z,102421.03
2018-12-31T00:40:37.392Z,102421.12
2018-12-31T00:43:06.041Z,102418.58
2018-12-31T00:45:34.497Z,102412.53
2018-12-31T00:48:03.035Z,102422.64
2018-12-31T00:50:31.497Z,102423.63
2018-12-31T00:53:00.055Z,102415.68
2018-12-31T00:55:28.813Z,102413.51
2018-12-31T00:57:57.314Z,102420.47
2018-12-31T01:00:25.792Z,102421.80
2018-12-31T01:02:54.343Z,102418.42
2018-12-31T01:05:22.872Z,102421.55
2018-12-31T01:07:51.735Z,102425.62
2018-12-31T01:10:20.279Z,102416.92
2018-12-31T01:12:48.819Z,102422.02
2018-12-31T01:15:17.396Z,102429.97
2018-12-31T01:17:45.872Z,102425.23
2018-12-31T01:20:14.657Z,102431.11
2018-12-31T01:22:43.178Z,102429.73
2018-12-31T01:25:11.723Z,102430.30
2018-12-31T01:27:40.286Z,102434.40
2018-12-31T01:30:08.890Z,102439.31
2018-12-31T01:32:37.362Z,102444.86
2018-12-31T01:35:06.188Z,102451.00
2018-12-31T01:37:34.971Z,102442.34
2018-12-31T01:40:03.526Z,102443.66
2018-12-31T01:42:32.018Z,102454.63
2018-12-31T01:45:00.542Z,102456.52
2018-12-31T01:47:29.031Z,102459.55
2018-12-31T01:49:57.799Z,102458.31
2018-12-31T01:52:26.272Z,102470.70
2018-12-31T01:54:54.688Z,102471.55
2018-12-31T01:57:23.181Z,102472.97
2018-12-31T01:59:51.661Z,102475.62
2018-12-31T02:02:20.101Z,102474.48
2018-12-31T02:04:48.582Z,102473.16
2018-12-31T02:07:17.071Z,102481.01
2018-12-31T02:09:45.546Z,102479.30
2018-12-31T02:12:14.334Z,102470.42
2018-12-31T02:14:42.846Z,102474.20
2018-12-31T02:17:11.335Z,102467.67
2018-12-31T02:19:39.871Z,102476.00
2018-12-31T02:22:08.393Z,102478.92
2018-12-31T02:24:36.858Z,102477.70
2018-12-31T02:27:05.740Z,102489.05
2018-12-31T02:29:34.157Z,102489.05
2018-12-31T02:32:02.700Z,102488.28
2018-12-31T02:34:31.487Z,102480.72
2018-12-31T02:37:19.295Z,102478.45
2018-12-31T02:39:47.681Z,102482.77
2018-12-31T02:42:16.168Z,102483.14
2018-12-31T02:44:44.983Z,102479.08
2018-12-31T02:47:15.173Z,102483.52
2018-12-31T02:49:44.117Z,102483.52
2018-12-31T02:52:12.620Z,102478.92
2018-12-31T02:54:41.187Z,102479.66
2018-12-31T02:57:09.658Z,102481.35
2018-12-31T02:59:38.536Z,102481.73
2018-12-31T03:02:06.995Z,102474.27
2018-12-31T03:04:35.540Z,102468.49
2018-12-31T03:07:04.085Z,102457.15
2018-12-31T03:09:32.540Z,102459.23
2018-12-31T03:12:00.999Z,102461.41
2018-12-31T03:17:23.833Z,102483.52
2018-12-31T03:19:52.300Z,102477.47
2018-12-31T03:22:20.823Z,102472.66
2018-12-31T03:24:49.438Z,102473.03
2018-12-31T03:27:18.151Z,102476.91
2018-12-31T03:29:46.813Z,102482.20
2018-12-31T03:32:15.329Z,102477.85
2018-12-31T03:34:43.825Z,102474.30
2018-12-31T03:37:12.312Z,102478.83
2018-12-31T03:39:40.749Z,102482.08
2018-12-31T03:42:09.768Z,102485.58
2018-12-31T03:44:38.367Z,102485.83
2018-12-31T03:47:06.831Z,102486.59
2018-12-31T03:49:35.354Z,102480.72
2018-12-31T03:52:03.966Z,102479.49
2018-12-31T03:54:32.411Z,102485.83
2018-12-31T03:57:00.839Z,102485.83
2018-12-31T03:59:29.653Z,102482.14
2018-12-31T04:01:58.145Z,102486.39
2018-12-31T04:04:26.767Z,102483.63
2018-12-31T04:06:55.515Z,102481.35
2018-12-31T04:09:23.916Z,102476.63
2018-12-31T04:11:52.354Z,102476.75
2018-12-31T04:14:20.813Z,102478.45
2018-12-31T04:16:49.663Z,102491.69
2018-12-31T04:19:18.124Z,102487.87
2018-12-31T04:21:46.531Z,102492.03
2018-12-31T04:24:15.106Z,102483.75
2018-12-31T04:26:43.562Z,102490.84
2018-12-31T04:29:11.991Z,102480.72
2018-12-31T04:31:40.438Z,102479.88
2018-12-31T04:34:08.983Z,102479.02
2018-12-31T04:36:37.535Z,102487.72
2018-12-31T04:39:45.979Z,102487.44
2018-12-31T04:42:14.510Z,102495.16
2018-12-31T04:44:43.020Z,102487.97
2018-12-31T04:47:11.466Z,102492.41
2018-12-31T04:49:40.475Z,102487.87
2018-12-31T04:52:08.928Z,102494.12
2018-12-31T04:54:37.849Z,102487.87
2018-12-31T04:57:06.385Z,102485.98
2018-12-31T04:59:34.949Z,102483.20
2018-12-31T05:02:03.459Z,102485.19
2018-12-31T05:04:31.988Z,102485.56
2018-12-31T05:07:00.490Z,102478.09
2018-12-31T05:09:28.959Z,102468.92
2018-12-31T05:11:57.508Z,102483.77
2018-12-31T05:14:26.068Z,102496.06
2018-12-31T05:16:54.574Z,102500.41
2018-12-31T05:19:23.024Z,102499.56
2018-12-31T05:21:51.658Z,102501.61
2018-12-31T05:24:20.191Z,102494.98
2018-12-31T05:26:48.696Z,102512.20
2018-12-31T05:29:17.179Z,102528.46
2018-12-31T05:31:45.714Z,102526.57
2018-12-31T05:34:14.242Z,102523.55
2018-12-31T05:36:42.881Z,102520.70
2018-12-31T05:39:11.358Z,102522.03
2018-12-31T05:41:39.776Z,102513.61
2018-12-31T05:44:08.232Z,102522.41
2018-12-31T05:46:36.706Z,102516.61
2018-12-31T05:49:05.164Z,102522.98
2018-12-31T05:51:33.628Z,102522.60
2018-12-31T05:54:02.069Z,102527.33
2018-12-31T05:56:30.933Z,102522.41
2018-12-31T05:58:59.376Z,102521.66
2018-12-31T06:01:27.967Z,102519.00
2018-12-31T06:03:56.450Z,102519.38
2018-12-31T06:06:24.814Z,102521.09
2018-12-31T06:08:53.555Z,102522.75
2018-12-31T06:11:22.330Z,102525.41
2018-12-31T06:13:50.826Z,102534.58
2018-12-31T06:16:19.340Z,102533.53
2018-12-31T06:18:47.811Z,102536.19
2018-12-31T06:21:16.271Z,102532.20
2018-12-31T06:23:44.872Z,102537.28
2018-12-31T06:26:13.416Z,102537.28
2018-12-31T06:28:41.910Z,102538.98
2018-12-31T06:31:10.460Z,102546.93
2018-12-31T06:33:38.976Z,102547.21
2018-12-31T06:36:07.557Z,102544.19
2018-12-31T06:38:36.362Z,102549.48
2018-12-31T06:41:04.877Z,102549.02
2018-12-31T06:43:33.444Z,102552.51
2018-12-31T06:46:02.068Z,102551.09
2018-12-31T06:48:30.510Z,102546.52
2018-12-31T06:50:59.069Z,102542.06
2018-12-31T06:53:27.667Z,102542.54
2018-12-31T06:55:56.140Z,102546.52
2018-12-31T06:58:25.484Z,102542.92
2018-12-31T07:00:55.155Z,102536.05
2018-12-31T07:03:23.599Z,102539.36
2018-12-31T07:05:52.130Z,102548.06
2018-12-31T07:08:20.603Z,102550.23
2018-12-31T07:10:49.218Z,102546.27
2018-12-31T07:13:17.719Z,102553.13
2018-12-31T07:15:46.173Z,102550.02
2018-12-31T07:20:50.066Z,102554.27
2018-12-31T07:23:18.649Z,102548.97
2018-12-31T07:25:47.183Z,102550.86
2018-12-31T07:28:15.741Z,102555.97
2018-12-31T07:30:44.214Z,102560.70
2018-12-31T07:33:12.687Z,102567.70
2018-12-31T07:35:41.154Z,102575.46
2018-12-31T07:38:09.668Z,102582.46
2018-12-31T07:40:38.159Z,102588.30
2018-12-31T07:43:06.680Z,102593.12
2018-12-31T07:45:35.229Z,102588.20
2018-12-31T07:48:03.747Z,102585.45
2018-12-31T07:50:32.405Z,102589.58
2018-12-31T07:53:00.903Z,102592.64
2018-12-31T07:55:29.356Z,102597.37
2018-12-31T07:57:58.011Z,102594.39
2018-12-31T08:00:26.464Z,102590.33
2018-12-31T08:02:55.006Z,102586.35
2018-12-31T08:05:23.477Z,102586.55
2018-12-31T08:07:51.933Z,102596.00
2018-12-31T08:10:20.518Z,102592.18
2018-12-31T08:12:48.992Z,102594.26
2018-12-31T08:15:17.463Z,102589.71
2018-12-31T08:17:45.956Z,102593.12
2018-12-31T08:20:14.530Z,102595.54
2018-12-31T08:22:43.079Z,102597.05
2018-12-31T08:25:11.563Z,102597.39
2018-12-31T08:27:40.005Z,102593.70
2018-12-31T08:30:08.652Z,102594.55
2018-12-31T08:32:37.340Z,102600.60
2018-12-31T08:35:05.910Z,102602.65
2018-12-31T08:37:34.605Z,102601.70
2018-12-31T08:40:03.117Z,102603.78
2018-12-31T08:42:32.044Z,102604.16
2018-12-31T08:45:00.506Z,102601.12
2018-12-31T08:47:29.121Z,102595.63
2018-12-31T08:49:57.619Z,102597.48
2018-12-31T08:52:26.025Z,102595.95
2018-12-31T08:54:54.567Z,102601.40
2018-12-31T08:57:22.957Z,102597.80
2018-12-31T08:59:51.521Z,102600.39
2018-12-31T09:02:20.121Z,102600.54
2018-12-31T09:04:48.557Z,102598.44
2018-12-31T09:07:16.995Z,102601.75
2018-12-31T09:09:45.576Z,102596.98
2018-12-31T09:12:14.038Z,102596.92
2018-12-31T09:14:42.581Z,102593.38
2018-12-31T09:17:11.125Z,102593.21
2018-12-31T09:19:39.655Z,102592.36
2018-12-31T09:22:08.245Z,102597.96
2018-12-31T09:24:44.482Z,102597.47
2018-12-31T09:27:07.014Z,102604.27
2018-12-31T09:29:35.559Z,102593.91
2018-12-31T09:32:04.019Z,102589.59
2018-12-31T09:34:32.513Z,102587.19
2018-12-31T09:37:01.090Z,102587.09
2018-12-31T09:39:29.614Z,102578.84
2018-12-31T09:41:58.193Z,102588.14
2018-12-31T09:44:26.676Z,102595.59
2018-12-31T09:46:55.449Z,102594.41
2018-12-31T09:49:24.006Z,102600.33
2018-12-31T09:51:52.525Z,102600.09
2018-12-31T09:54:20.979Z,102601.52
2018-12-31T09:56:49.552Z,102596.48
2018-12-31T09:59:18.065Z,102605.40
2018-12-31T10:01:46.620Z,102598.32
2018-12-31T10:04:15.241Z,102594.98
2018-12-31T10:06:43.858Z,102586.69
2018-12-31T10:09:12.446Z,102588.10
2018-12-31T10:11:41.056Z,102584.28
2018-12-31T10:14:09.586Z,102582.84
2018-12-31T10:16:38.146Z,102578.69
2018-12-31T10:19:06.763Z,102582.58
2018-12-31T10:21:40.887Z,102584.66
2018-12-31T10:24:05.687Z,102591.20
2018-12-31T10:26:34.159Z,102593.24
2018-12-31T10:29:02.825Z,102585.63
2018-12-31T10:31:31.328Z,102584.47
2018-12-31T10:33:59.781Z,102584.27
2018-12-31T10:36:28.293Z,102576.69
2018-12-31T10:38:56.740Z,102577.69
2018-12-31T10:41:25.205Z,102584.59
2018-12-31T10:43:53.670Z,102577.69
2018-12-31T10:46:22.614Z,102583.75
2018-12-31T10:48:51.271Z,102577.80
2018-12-31T10:51:19.841Z,102583.97
2018-12-31T10:53:48.348Z,102577.69
2018-12-31T10:56:16.902Z,102569.67
2018-12-31T10:58:45.507Z,102566.52
2018-12-31T11:01:13.950Z,102569.55
2018-12-31T11:03:42.514Z,102565.25
2018-12-31T11:06:11.048Z,102556.67
2018-12-31T11:08:39.550Z,102546.03
2018-12-31T11:11:08.196Z,102545.14
2018-12-31T11:13:36.836Z,102550.51
2018-12-31T11:16:05.313Z,102556.22
2018-12-31T11:18:33.909Z,102555.41
2018-12-31T11:21:02.368Z,102558.06
2018-12-31T11:23:30.945Z,102552.75
2018-12-31T11:25:59.567Z,102552.91
2018-12-31T11:28:28.207Z,102548.70
2018-12-31T11:30:56.839Z,102542.78
2018-12-31T11:33:25.422Z,102538.64
2018-12-31T11:35:54.031Z,102532.65
2018-12-31T11:38:22.599Z,102530.95
2018-12-31T11:40:51.261Z,102540.52
2018-12-31T11:43:19.753Z,102540.26
2018-12-31T11:45:48.225Z,102542.08
2018-12-31T11:48:16.746Z,102539.24
2018-12-31T11:50:45.417Z,102536.47
2018-12-31T11:53:13.980Z,102536.47
2018-12-31T11:55:42.408Z,102531.89
2018-12-31T11:58:11.009Z,102527.30
2018-12-31T12:00:39.592Z,102528.63
2018-12-31T12:03:08.047Z,102527.22
2018-12-31T12:05:36.679Z,102527.95
2018-12-31T12:08:05.195Z,102527.47
2018-12-31T12:10:33.680Z,102528.06
2018-12-31T12:13:02.135Z,102530.34
2018-12-31T12:15:30.635Z,102530.22
2018-12-31T12:18:00.896Z,102531.32
2018-12-31T12:20:29.395Z,102525.88
2018-12-31T12:22:57.910Z,102517.05
2018-12-31T12:25:26.410Z,102508.23
2018-12-31T12:27:54.825Z,102493.44
2018-12-31T12:30:25.427Z,102491.15
2018-12-31T12:35:42.990Z,102503.37
2018-12-31T12:38:11.533Z,102508.83
2018-12-31T12:40:40.083Z,102509.79
2018-12-31T12:43:08.548Z,102501.30
2018-12-31T12:48:31.548Z,102502.38
2018-12-31T12:50:59.950Z,102503.12
2018-12-31T12:53:28.448Z,102498.75
2018-12-31T12:55:57.075Z,102492.25
2018-12-31T12:58:25.595Z,102498.44
2018-12-31T13:00:54.311Z,102495.89
2018-12-31T13:03:22.851Z,102491.91
2018-12-31T13:05:51.475Z,102493.09
2018-12-31T13:08:20.042Z,102501.22
2018-12-31T13:10:48.513Z,102495.64
2018-12-31T13:13:18.978Z,102494.55
2018-12-31T13:15:47.700Z,102495.77
2018-12-31T13:18:16.194Z,102488.39
2018-12-31T13:20:44.830Z,102489.50
2018-12-31T13:23:13.382Z,102494.56
2018-12-31T13:25:42.021Z,102492.10
2018-12-31T13:28:10.726Z,102503.25
2018-12-31T13:30:39.262Z,102517.26
2018-12-31T13:33:08.214Z,102520.03
2018-12-31T13:35:36.794Z,102520.63
2018-12-31T13:38:07.138Z,102516.78
2018-12-31T13:40:35.593Z,102506.84
2018-12-31T13:43:04.170Z,102495.51
2018-12-31T13:45:32.772Z,102485.47
2018-12-31T13:48:01.529Z,102503.85
2018-12-31T13:50:31.990Z,102507.33
2018-12-31T13:53:00.723Z,102508.80
2018-12-31T13:55:29.742Z,102504.45
2018-12-31T13:57:58.366Z,102514.83
2018-12-31T14:00:27.125Z,102510.73
2018-12-31T14:05:25.983Z,102502.61
2018-12-31T14:07:54.582Z,102501.88
2018-12-31T14:10:23.140Z,102504.27
2018-12-31T14:12:52.726Z,102515.91
2018-12-31T14:15:22.163Z,102513.46
2018-12-31T14:17:50.616Z,102510.55
2018-12-31T14:20:19.294Z,102504.01
2018-12-31T14:22:47.931Z,102499.91
2018-12-31T14:25:16.610Z,102505.33
2018-12-31T14:27:45.710Z,102504.96
2018-12-31T14:30:14.257Z,102503.73
2018-12-31T14:32:42.855Z,102513.66
2018-12-31T14:35:11.626Z,102512.19
2018-12-31T14:37:40.271Z,102504.47
2018-12-31T14:40:10.688Z,102506.96
2018-12-31T14:42:39.472Z,102503.94
2018-12-31T14:45:08.205Z,102505.73
2018-12-31T14:47:36.696Z,102505.73
2018-12-31T14:50:45.183Z,102499.83
2018-12-31T14:53:13.773Z,102506.91
2018-12-31T14:55:42.764Z,102501.59
2018-12-31T14:58:13.224Z,102505.45
2018-12-31T15:00:42.101Z,102503.75
2018-12-31T15:03:10.691Z,102505.30
2018-12-31T15:05:39.261Z,102510.98
2018-12-31T15:08:27.214Z,102516.54
2018-12-31T15:10:55.698Z,102515.30
2018-12-31T15:13:24.292Z,102507.91
2018-12-31T15:15:52.830Z,102507.66
2018-12-31T15:18:21.485Z,102506.09
2018-12-31T15:20:49.963Z,102502.45
2018-12-31T15:23:18.538Z,102501.37
2018-12-31T15:25:47.483Z,102499.77
2018-12-31T15:28:16.115Z,102497.12
2018-12-31T15:30:44.668Z,102496.41
2018-12-31T15:33:54.830Z,102493.86
2018-12-31T15:36:23.359Z,102494.44
2018-12-31T15:38:53.610Z,102497.69
2018-12-31T15:41:22.174Z,102494.90
2018-12-31T15:43:50.689Z,102501.64
2018-12-31T15:46:20.427Z,102502.57
2018-12-31T15:48:49.541Z,102500.13
2018-12-31T15:51:17.931Z,102500.50
2018-12-31T15:53:46.522Z,102487.98
2018-12-31T15:56:15.020Z,102480.88
2018-12-31T15:58:43.468Z,102480.14
2018-12-31T16:01:11.981Z,102475.20
2018-12-31T16:03:42.301Z,102468.09
2018-12-31T16:06:11.150Z,102471.02
2018-12-31T16:08:39.687Z,102468.86
2018-12-31T16:11:08.324Z,102464.29
2018-12-31T16:13:36.931Z,102473.08
2018-12-31T16:16:07.226Z,102471.02
2018-12-31T16:18:35.727Z,102475.95
2018-12-31T16:21:05.855Z,102471.02
2018-12-31T16:23:34.436Z,102471.98
2018-12-31T16:26:02.981Z,102473.58
2018-12-31T16:28:33.736Z,102460.78
2018-12-31T16:31:42.508Z,102459.56
2018-12-31T16:34:12.990Z,102455.20
2018-12-31T16:36:41.616Z,102448.82
2018-12-31T16:39:10.348Z,102450.86
2018-12-31T16:42:18.854Z,102442.96
2018-12-31T16:44:47.393Z,102439.45
2018-12-31T16:47:15.924Z,102447.30
2018-12-31T16:52:33.964Z,102427.13
2018-12-31T16:55:02.512Z,102424.97
2018-12-31T16:57:31.293Z,102426.67
2018-12-31T16:59:59.803Z,102433.56
2018-12-31T17:02:28.815Z,102430.91
2018-12-31T17:05:37.247Z,102436.33
2018-12-31T17:08:06.312Z,102437.17
2018-12-31T17:10:34.930Z,102441.74
2018-12-31T17:13:03.516Z,102445.97
2018-12-31T17:15:32.155Z,102449.70
2018-12-31T17:18:00.722Z,102441.91
2018-12-31T17:20:29.362Z,102438.05
2018-12-31T17:22:57.891Z,102432.37
2018-12-31T17:25:26.497Z,102436.72
2018-12-31T17:27:55.279Z,102433.36
2018-12-31T17:30:23.792Z,102428.05
2018-12-31T17:32:52.356Z,102430.56
2018-12-31T17:35:20.913Z,102421.04
2018-12-31T17:37:49.454Z,102424.66
2018-12-31T17:40:18.161Z,102426.45
2018-12-31T17:42:46.616Z,102425.61
2018-12-31T17:45:22.789Z,102424.66
2018-12-31T17:47:45.375Z,102416.91
2018-12-31T17:50:13.946Z,102422.69
2018-12-31T17:52:42.490Z,102421.34
2018-12-31T17:55:11.064Z,102423.30
2018-12-31T17:57:39.938Z,102416.62
2018-12-31T18:00:50.219Z,102420.59
2018-12-31T18:03:18.759Z,102410.14
2018-12-31T18:05:49.014Z,102408.34
2018-12-31T18:08:17.412Z,102405.05
2018-12-31T18:10:45.859Z,102399.98
2018-12-31T18:13:14.487Z,102396.02
2018-12-31T18:15:43.329Z,102392.17
2018-12-31T18:18:12.124Z,102391.69
2018-12-31T18:20:40.942Z,102387.60
2018-12-31T18:23:09.515Z,102392.06
2018-12-31T18:25:37.984Z,102392.91
2018-12-31T18:28:06.632Z,102391.48
2018-12-31T18:30:35.244Z,102392.81
2018-12-31T18:33:03.822Z,102403.79
2018-12-31T18:35:32.202Z,102409.70
2018-12-31T18:38:01.114Z,102409.22
2018-12-31T18:40:29.671Z,102409.72
2018-12-31T18:42:58.097Z,102406.45
2018-12-31T18:45:26.600Z,102412.03
2018-12-31T18:47:55.141Z,102412.62
2018-12-31T18:50:23.627Z,102413.22
2018-12-31T18:52:52.176Z,102407.31
2018-12-31T18:55:20.790Z,102406.94
2018-12-31T18:57:51.349Z,102412.52
2018-12-31T19:00:20.214Z,102407.95
2018-12-31T19:02:48.998Z,102403.55
2018-12-31T19:05:17.503Z,102404.30
2018-12-31T19:07:46.047Z,102404.56
2018-12-31T19:10:16.357Z,102403.23
2018-12-31T19:12:44.903Z,102398.19
2018-12-31T19:15:13.314Z,102394.06
2018-12-31T19:17:42.222Z,102401.06
2018-12-31T19:20:11.147Z,102401.80
2018-12-31T19:22:39.690Z,102401.31
2018-12-31T19:25:08.263Z,102414.59
2018-12-31T19:27:37.205Z,102415.17
2018-12-31T19:30:45.631Z,102404.19
2018-12-31T19:33:14.128Z,102410.23
2018-12-31T19:36:01.930Z,102391.30
2018-12-31T19:38:30.463Z,102386.58
2018-12-31T19:40:58.947Z,102397.56
2018-12-31T19:43:27.497Z,102392.36
2018-12-31T19:45:56.488Z,102388.53
2018-12-31T19:48:24.954Z,102377.66
2018-12-31T19:51:01.160Z,102373.94
2018-12-31T19:53:29.588Z,102382.97
2018-12-31T19:55:58.260Z,102374.78
2018-12-31T19:58:26.983Z,102381.69
2018-12-31T20:00:55.626Z,102376.13
2018-12-31T20:03:24.269Z,102375.68
2018-12-31T20:05:52.787Z,102371.92
2018-12-31T20:08:21.375Z,102372.03
2018-12-31T20:10:49.955Z,102368.30
2018-12-31T20:13:18.603Z,102366.72
2018-12-31T20:15:48.713Z,102355.87
2018-12-31T20:18:17.496Z,102359.86
2018-12-31T20:20:46.062Z,102360.23
2018-12-31T20:23:14.591Z,102351.78
2018-12-31T20:25:43.299Z,102348.98
2018-12-31T20:28:12.148Z,102348.02
2018-12-31T20:30:42.313Z,102345.00
2018-12-31T20:33:10.854Z,102333.19
2018-12-31T20:35:39.302Z,102337.17
2018-12-31T20:38:07.843Z,102336.55
2018-12-31T20:40:36.312Z,102336.92
2018-12-31T20:43:04.843Z,102335.11
2018-12-31T20:45:35.026Z,102327.99
2018-12-31T20:48:03.517Z,102334.77
2018-12-31T20:50:31.882Z,102327.88
2018-12-31T20:53:00.471Z,102328.61
2018-12-31T20:55:29.255Z,102331.75
2018-12-31T20:57:57.705Z,102321.60
2018-12-31T21:00:26.261Z,102321.74
2018-12-31T21:02:54.791Z,102321.59
2018-12-31T21:05:23.364Z,102315.80
2018-12-31T21:07:51.836Z,102319.19
2018-12-31T21:10:20.295Z,102311.70
2018-12-31T21:12:48.953Z,102308.58
2018-12-31T21:15:17.492Z,102310.25
2018-12-31T21:17:46.052Z,102305.18
2018-12-31T21:20:14.665Z,102304.47
2018-12-31T21:22:43.169Z,102293.20
2018-12-31T21:25:13.344Z,102298.89
2018-12-31T21:27:41.797Z,102293.34
2018-12-31T21:30:50.263Z,102291.53
2018-12-31T21:33:18.841Z,102281.38
2018-12-31T21:35:47.661Z,102281.38
2018-12-31T21:38:16.464Z,102275.34
2018-12-31T21:40:44.902Z,102272.68
2018-12-31T21:43:13.500Z,102266.77
2018-12-31T21:45:42.142Z,102254.92
2018-12-31T21:48:10.670Z,102246.47
2018-12-31T21:50:39.240Z,102243.22
2018-12-31T21:53:07.876Z,102237.63
2018-12-31T21:55:36.428Z,102243.80
2018-12-31T21:58:05.455Z,102246.22
2018-12-31T22:00:33.867Z,102242.23
2018-12-31T22:03:02.757Z,102240.66
2018-12-31T22:05:31.346Z,102241.62
2018-12-31T22:07:59.818Z,102239.30
2018-12-31T22:10:28.291Z,102239.16
2018-12-31T22:12:56.776Z,102235.66
2018-12-31T22:15:25.225Z,102224.33
2018-12-31T22:17:54.019Z,102219.38
2018-12-31T22:20:22.595Z,102216.11
2018-12-31T22:22:51.150Z,102213.33
2018-12-31T22:25:21.353Z,102216.23
2018-12-31T22:27:49.908Z,102211.98
2018-12-31T22:30:18.273Z,102213.91
2018-12-31T22:32:46.855Z,102209.56
2018-12-31T22:35:15.400Z,102208.95
2018-12-31T22:37:45.560Z,102200.77
2018-12-31T22:40:14.134Z,102197.75
2018-12-31T22:42:42.646Z,102197.98
2018-12-31T22:45:11.227Z,102200.63
2018-12-31T22:47:39.680Z,102204.94
2018-12-31T22:50:48.123Z,102203.97
2018-12-31T22:53:16.667Z,102190.47
2018-12-31T22:55:45.268Z,102190.83
2018-12-31T22:58:13.725Z,102179.84
2018-12-31T23:03:21.275Z,102182.50
2018-12-31T23:06:09.388Z,102174.30
2018-12-31T23:08:38.117Z,102174.02
2018-12-31T23:11:06.778Z,102168.73
2018-12-31T23:13:35.413Z,102159.13
2018-12-31T23:16:03.972Z,102161.39
2018-12-31T23:18:32.517Z,102154.97
2018-12-31T23:21:01.464Z,102149.76
2018-12-31T23:23:30.011Z,102146.09
2018-12-31T23:25:58.937Z,102137.68
2018-12-31T23:28:27.590Z,102134.77
2018-12-31T23:30:57.856Z,102138.09
2018-12-31T23:33:26.842Z,102127.27
2018-12-31T23:35:55.480Z,102117.64
2018-12-31T23:38:24.038Z,102112.31
2018-12-31T23:40:52.620Z,102108.68
2018-12-31T23:43:22.826Z,102107.73
2018-12-31T23:45:51.434Z,102097.85
2018-12-31T23:48:19.943Z,102100.28
2018-12-31T23:50:48.353Z,102086.74
2018-12-31T23:53:16.755Z,102091.22
2018-12-31T23:55:45.263Z,102095.44
2018-12-31T23:58:13.722Z,102091.20
